sensor_id;sensor_type;location;lat;lon;timestamp;P1;durP1;ratioP1;P2;durP2;ratioP2
20421;SDS011;10370;53.102;18.034;2022-11-22T03:01:24;75.10;;;26.27;;
20421;SDS011;10370;53.102;18.034;2022-11-22T05:33:26;116.73;;;31.57;;
20421;SDS011;10370;53.102;18.034;2022-11-22T05:38:47;114.77;;;31.60;;
20421;SDS011;10370;53.102;18.034;2022-11-22T05:44:08;106.40;;;32.83;;
20421;SDS011;10370;53.102;18.034;2022-11-22T05:49:29;115.47;;;31.37;;
20421;SDS011;10370;53.102;18.034;2022-11-22T05:54:50;119.37;;;34.33;;
20421;SDS011;10370;53.102;18.034;2022-11-22T06:00:11;131.93;;;36.57;;
20421;SDS011;10370;53.102;18.034;2022-11-22T06:05:33;140.37;;;36.90;;
20421;SDS011;10370;53.102;18.034;2022-11-22T06:10:53;140.60;;;36.77;;
20421;SDS011;10370;53.102;18.034;2022-11-22T06:21:46;153.30;;;38.30;;
20421;SDS011;10370;53.102;18.034;2022-11-22T06:27:07;156.07;;;36.90;;
20421;SDS011;10370;53.102;18.034;2022-11-22T06:32:30;142.03;;;34.40;;
20421;SDS011;10370;53.102;18.034;2022-11-22T06:37:52;133.10;;;37.63;;
20421;SDS011;10370;53.102;18.034;2022-11-22T06:43:19;138.37;;;37.50;;
20421;SDS011;10370;53.102;18.034;2022-11-22T06:48:41;139.67;;;35.00;;
20421;SDS011;10370;53.102;18.034;2022-11-22T06:54:02;130.63;;;36.37;;
20421;SDS011;10370;53.102;18.034;2022-11-22T06:59:23;118.20;;;33.03;;
20421;SDS011;10370;53.102;18.034;2022-11-22T07:04:44;116.27;;;32.07;;
20421;SDS011;10370;53.102;18.034;2022-11-22T07:10:24;103.07;;;30.40;;
20421;SDS011;10370;53.102;18.034;2022-11-22T07:15:52;125.40;;;33.77;;
20421;SDS011;10370;53.102;18.034;2022-11-22T07:21:18;141.43;;;47.63;;
20421;SDS011;10370;53.102;18.034;2022-11-22T07:26:40;103.87;;;30.73;;
20421;SDS011;10370;53.102;18.034;2022-11-22T07:32:01;113.33;;;33.07;;
20421;SDS011;10370;53.102;18.034;2022-11-22T07:37:22;110.30;;;34.97;;
20421;SDS011;10370;53.102;18.034;2022-11-22T07:42:42;132.73;;;42.13;;
20421;SDS011;10370;53.102;18.034;2022-11-22T07:48:03;129.33;;;36.77;;
20421;SDS011;10370;53.102;18.034;2022-11-22T07:53:24;136.90;;;42.13;;
20421;SDS011;10370;53.102;18.034;2022-11-22T07:58:45;157.67;;;43.97;;
20421;SDS011;10370;53.102;18.034;2022-11-22T08:04:06;135.33;;;40.13;;
20421;SDS011;10370;53.102;18.034;2022-11-22T08:09:28;136.13;;;42.63;;
20421;SDS011;10370;53.102;18.034;2022-11-22T08:14:50;158.47;;;46.43;;
20421;SDS011;10370;53.102;18.034;2022-11-22T08:20:11;188.37;;;51.37;;
20421;SDS011;10370;53.102;18.034;2022-11-22T08:25:32;124.57;;;37.23;;
20421;SDS011;10370;53.102;18.034;2022-11-22T08:31:04;126.17;;;37.70;;
20421;SDS011;10370;53.102;18.034;2022-11-22T08:36:31;106.37;;;34.47;;
20421;SDS011;10370;53.102;18.034;2022-11-22T08:41:52;122.57;;;36.67;;
20421;SDS011;10370;53.102;18.034;2022-11-22T08:47:13;132.97;;;39.93;;
20421;SDS011;10370;53.102;18.034;2022-11-22T08:52:34;130.20;;;37.30;;
20421;SDS011;10370;53.102;18.034;2022-11-22T08:57:58;140.23;;;38.37;;
20421;SDS011;10370;53.102;18.034;2022-11-22T09:03:19;129.93;;;38.37;;
20421;SDS011;10370;53.102;18.034;2022-11-22T09:08:40;126.27;;;37.77;;
20421;SDS011;10370;53.102;18.034;2022-11-22T09:14:06;126.63;;;39.43;;
20421;SDS011;10370;53.102;18.034;2022-11-22T09:19:27;114.40;;;36.03;;
20421;SDS011;10370;53.102;18.034;2022-11-22T09:30:09;119.43;;;38.20;;
20421;SDS011;10370;53.102;18.034;2022-11-22T09:35:30;121.17;;;35.47;;
20421;SDS011;10370;53.102;18.034;2022-11-22T09:40:50;104.80;;;33.77;;
20421;SDS011;10370;53.102;18.034;2022-11-22T09:51:48;103.97;;;33.53;;
20421;SDS011;10370;53.102;18.034;2022-11-22T09:57:21;101.00;;;32.20;;
20421;SDS011;10370;53.102;18.034;2022-11-22T10:02:53;88.13;;;29.30;;
20421;SDS011;10370;53.102;18.034;2022-11-22T10:13:57;86.63;;;30.97;;
20421;SDS011;10370;53.102;18.034;2022-11-22T10:19:24;90.77;;;29.97;;
20421;SDS011;10370;53.102;18.034;2022-11-22T10:24:51;78.87;;;27.40;;
20421;SDS011;10370;53.102;18.034;2022-11-22T10:30:15;89.63;;;27.70;;
20421;SDS011;10370;53.102;18.034;2022-11-22T11:03:57;88.27;;;28.97;;
20421;SDS011;10370;53.102;18.034;2022-11-22T11:09:21;98.27;;;31.20;;
20421;SDS011;10370;53.102;18.034;2022-11-22T11:15:11;160.23;;;48.80;;
20421;SDS011;10370;53.102;18.034;2022-11-22T11:20:41;158.20;;;50.97;;
20421;SDS011;10370;53.102;18.034;2022-11-22T11:37:36;106.37;;;34.27;;
20421;SDS011;10370;53.102;18.034;2022-11-22T11:48:42;124.17;;;40.53;;
20421;SDS011;10370;53.102;18.034;2022-11-22T11:54:13;114.80;;;36.13;;
20421;SDS011;10370;53.102;18.034;2022-11-22T12:05:02;166.20;;;50.93;;
20421;SDS011;10370;53.102;18.034;2022-11-22T12:21:51;160.17;;;47.90;;
20421;SDS011;10370;53.102;18.034;2022-11-22T12:27:29;135.80;;;39.97;;
20421;SDS011;10370;53.102;18.034;2022-11-22T12:32:58;167.23;;;49.40;;
20421;SDS011;10370;53.102;18.034;2022-11-22T12:38:31;142.90;;;45.27;;
20421;SDS011;10370;53.102;18.034;2022-11-22T12:43:59;151.60;;;47.30;;
20421;SDS011;10370;53.102;18.034;2022-11-22T12:49:26;137.37;;;42.87;;
20421;SDS011;10370;53.102;18.034;2022-11-22T13:01:23;151.47;;;48.20;;
20421;SDS011;10370;53.102;18.034;2022-11-22T13:06:26;270.17;;;70.73;;
20421;SDS011;10370;53.102;18.034;2022-11-22T13:11:57;137.43;;;41.67;;
20421;SDS011;10370;53.102;18.034;2022-11-22T13:17:33;172.37;;;51.17;;
20421;SDS011;10370;53.102;18.034;2022-11-22T13:23:00;223.93;;;57.30;;
20421;SDS011;10370;53.102;18.034;2022-11-22T13:28:28;135.07;;;41.57;;
20421;SDS011;10370;53.102;18.034;2022-11-22T13:33:59;189.63;;;54.20;;
20421;SDS011;10370;53.102;18.034;2022-11-22T13:39:23;137.57;;;42.70;;
20421;SDS011;10370;53.102;18.034;2022-11-22T13:45:27;148.60;;;44.73;;
20421;SDS011;10370;53.102;18.034;2022-11-22T14:02:20;149.97;;;42.07;;
20421;SDS011;10370;53.102;18.034;2022-11-22T14:07:42;199.23;;;45.10;;
20421;SDS011;10370;53.102;18.034;2022-11-22T14:13:07;171.87;;;49.37;;
20421;SDS011;10370;53.102;18.034;2022-11-22T14:18:46;142.70;;;40.10;;
20421;SDS011;10370;53.102;18.034;2022-11-22T14:35:29;144.83;;;42.70;;
20421;SDS011;10370;53.102;18.034;2022-11-22T14:57:42;168.17;;;51.73;;
20421;SDS011;10370;53.102;18.034;2022-11-22T15:15:14;128.27;;;40.03;;
20421;SDS011;10370;53.102;18.034;2022-11-22T15:21:23;123.17;;;39.07;;
20421;SDS011;10370;53.102;18.034;2022-11-22T15:27:23;126.60;;;39.53;;
20421;SDS011;10370;53.102;18.034;2022-11-22T15:39:13;200.90;;;66.53;;
20421;SDS011;10370;53.102;18.034;2022-11-22T15:44:56;160.80;;;54.07;;
20421;SDS011;10370;53.102;18.034;2022-11-22T15:50:37;173.47;;;59.07;;
20421;SDS011;10370;53.102;18.034;2022-11-22T15:56:20;161.27;;;48.83;;
20421;SDS011;10370;53.102;18.034;2022-11-22T16:02:15;180.77;;;55.83;;
20421;SDS011;10370;53.102;18.034;2022-11-22T16:07:45;191.97;;;60.00;;
20421;SDS011;10370;53.102;18.034;2022-11-22T16:18:42;165.07;;;53.03;;
20421;SDS011;10370;53.102;18.034;2022-11-22T16:24:15;152.33;;;48.57;;
20421;SDS011;10370;53.102;18.034;2022-11-22T16:29:38;166.07;;;52.40;;
20421;SDS011;10370;53.102;18.034;2022-11-22T16:35:10;260.40;;;79.07;;
20421;SDS011;10370;53.102;18.034;2022-11-22T16:40:48;173.17;;;50.60;;
20421;SDS011;10370;53.102;18.034;2022-11-22T16:46:15;212.57;;;64.27;;
20421;SDS011;10370;53.102;18.034;2022-11-22T16:51:37;242.00;;;71.63;;
20421;SDS011;10370;53.102;18.034;2022-11-22T17:02:59;221.30;;;63.37;;
20421;SDS011;10370;53.102;18.034;2022-11-22T17:08:34;158.30;;;50.87;;
20421;SDS011;10370;53.102;18.034;2022-11-22T17:13:55;153.17;;;48.57;;
20421;SDS011;10370;53.102;18.034;2022-11-22T17:45:44;144.40;;;48.57;;
20421;SDS011;10370;53.102;18.034;2022-11-22T17:56:27;174.70;;;55.97;;
20421;SDS011;10370;53.102;18.034;2022-11-22T18:01:51;142.43;;;46.13;;
20421;SDS011;10370;53.102;18.034;2022-11-22T18:07:15;143.70;;;47.60;;
20421;SDS011;10370;53.102;18.034;2022-11-22T18:12:36;125.93;;;43.77;;
20421;SDS011;10370;53.102;18.034;2022-11-22T18:18:01;141.10;;;48.57;;
20421;SDS011;10370;53.102;18.034;2022-11-22T18:23:22;139.47;;;47.33;;
20421;SDS011;10370;53.102;18.034;2022-11-22T18:34:28;140.53;;;51.10;;
20421;SDS011;10370;53.102;18.034;2022-11-22T18:39:49;178.90;;;66.03;;
20421;SDS011;10370;53.102;18.034;2022-11-22T18:45:10;156.17;;;53.57;;
20421;SDS011;10370;53.102;18.034;2022-11-22T18:50:32;180.73;;;60.57;;
20421;SDS011;10370;53.102;18.034;2022-11-22T18:55:53;152.60;;;52.73;;
20421;SDS011;10370;53.102;18.034;2022-11-22T19:01:15;143.00;;;48.80;;
20421;SDS011;10370;53.102;18.034;2022-11-22T19:06:38;148.07;;;49.40;;
20421;SDS011;10370;53.102;18.034;2022-11-22T19:12:00;155.37;;;48.70;;
20421;SDS011;10370;53.102;18.034;2022-11-22T19:17:21;138.20;;;48.27;;
20421;SDS011;10370;53.102;18.034;2022-11-22T19:22:42;139.43;;;48.57;;
20421;SDS011;10370;53.102;18.034;2022-11-22T19:28:03;135.67;;;50.57;;
20421;SDS011;10370;53.102;18.034;2022-11-22T19:33:24;126.63;;;44.67;;
20421;SDS011;10370;53.102;18.034;2022-11-22T19:38:45;132.33;;;46.90;;
20421;SDS011;10370;53.102;18.034;2022-11-22T19:44:07;137.83;;;48.83;;
20421;SDS011;10370;53.102;18.034;2022-11-22T19:49:28;150.90;;;50.03;;
20421;SDS011;10370;53.102;18.034;2022-11-22T19:54:49;142.80;;;50.53;;
20421;SDS011;10370;53.102;18.034;2022-11-22T20:00:09;151.20;;;53.30;;
20421;SDS011;10370;53.102;18.034;2022-11-22T20:05:32;144.00;;;49.63;;
20421;SDS011;10370;53.102;18.034;2022-11-22T20:10:58;132.73;;;46.83;;
20421;SDS011;10370;53.102;18.034;2022-11-22T20:16:23;149.27;;;50.03;;
20421;SDS011;10370;53.102;18.034;2022-11-22T20:21:46;155.17;;;47.70;;
20421;SDS011;10370;53.102;18.034;2022-11-22T20:27:09;159.90;;;50.27;;
20421;SDS011;10370;53.102;18.034;2022-11-22T20:32:30;150.70;;;48.47;;
20421;SDS011;10370;53.102;18.034;2022-11-22T20:37:51;155.87;;;49.63;;
20421;SDS011;10370;53.102;18.034;2022-11-22T20:43:11;165.37;;;51.07;;
20421;SDS011;10370;53.102;18.034;2022-11-22T20:48:34;166.80;;;51.80;;
20421;SDS011;10370;53.102;18.034;2022-11-22T20:53:59;182.60;;;55.10;;
20421;SDS011;10370;53.102;18.034;2022-11-22T20:59:23;150.27;;;49.23;;
20421;SDS011;10370;53.102;18.034;2022-11-22T21:04:44;169.83;;;51.63;;
20421;SDS011;10370;53.102;18.034;2022-11-22T21:10:04;150.67;;;47.30;;
20421;SDS011;10370;53.102;18.034;2022-11-22T21:15:25;160.23;;;48.70;;
20421;SDS011;10370;53.102;18.034;2022-11-22T21:20:46;154.63;;;47.77;;
20421;SDS011;10370;53.102;18.034;2022-11-22T21:26:07;140.23;;;47.67;;
20421;SDS011;10370;53.102;18.034;2022-11-22T21:31:28;157.77;;;49.60;;
20421;SDS011;10370;53.102;18.034;2022-11-22T21:36:49;136.40;;;43.97;;
20421;SDS011;10370;53.102;18.034;2022-11-22T21:42:09;130.63;;;42.97;;
20421;SDS011;10370;53.102;18.034;2022-11-22T21:47:30;136.10;;;46.37;;
20421;SDS011;10370;53.102;18.034;2022-11-22T21:52:51;134.93;;;44.93;;
20421;SDS011;10370;53.102;18.034;2022-11-22T21:58:12;131.60;;;45.33;;
20421;SDS011;10370;53.102;18.034;2022-11-22T22:03:33;138.40;;;43.50;;
20421;SDS011;10370;53.102;18.034;2022-11-22T22:08:54;136.03;;;43.97;;
20421;SDS011;10370;53.102;18.034;2022-11-22T22:14:15;140.80;;;45.87;;
20421;SDS011;10370;53.102;18.034;2022-11-22T22:19:36;149.97;;;49.87;;
20421;SDS011;10370;53.102;18.034;2022-11-22T22:24:59;159.17;;;48.53;;
20421;SDS011;10370;53.102;18.034;2022-11-22T22:30:21;144.07;;;47.77;;
20421;SDS011;10370;53.102;18.034;2022-11-22T22:35:43;142.47;;;46.40;;
20421;SDS011;10370;53.102;18.034;2022-11-22T22:41:04;156.00;;;49.30;;
20421;SDS011;10370;53.102;18.034;2022-11-22T22:46:26;158.60;;;50.40;;
20421;SDS011;10370;53.102;18.034;2022-11-22T22:51:47;161.10;;;48.30;;
20421;SDS011;10370;53.102;18.034;2022-11-22T22:57:10;152.40;;;46.77;;
20421;SDS011;10370;53.102;18.034;2022-11-22T23:02:31;168.23;;;49.70;;
20421;SDS011;10370;53.102;18.034;2022-11-22T23:07:52;155.80;;;48.70;;
20421;SDS011;10370;53.102;18.034;2022-11-22T23:13:13;165.73;;;47.37;;
20421;SDS011;10370;53.102;18.034;2022-11-22T23:18:34;166.47;;;47.13;;
20421;SDS011;10370;53.102;18.034;2022-11-22T23:23:57;169.73;;;47.30;;
20421;SDS011;10370;53.102;18.034;2022-11-22T23:29:19;173.93;;;48.13;;
20421;SDS011;10370;53.102;18.034;2022-11-22T23:34:39;171.60;;;49.47;;
20421;SDS011;10370;53.102;18.034;2022-11-22T23:40:00;176.27;;;46.90;;
20421;SDS011;10370;53.102;18.034;2022-11-22T23:45:21;158.67;;;44.23;;
20421;SDS011;10370;53.102;18.034;2022-11-22T23:50:42;175.60;;;48.73;;
20421;SDS011;10370;53.102;18.034;2022-11-22T23:56:07;169.03;;;45.57;;
